sensor_id;sensor_type;location;lat;lon;timestamp;pressure;altitude;pressure_sealevel;temperature;humidity
44140;BME280;29803;51.048;4.686;2023-02-19T00:00:39;101973.34;;;9.88;100.00
44140;BME280;29803;51.048;4.686;2023-02-19T00:03:09;101972.38;;;9.89;100.00
44140;BME280;29803;51.048;4.686;2023-02-19T00:05:40;101979.56;;;9.88;100.00
44140;BME280;29803;51.048;4.686;2023-02-19T00:08:10;101994.41;;;9.92;100.00
44140;BME280;29803;51.048;4.686;2023-02-19T00:10:40;101986.34;;;9.92;100.00
44140;BME280;29803;51.048;4.686;2023-02-19T00:13:11;101979.56;;;9.88;100.00
44140;BME280;29803;51.048;4.686;2023-02-19T00:15:42;101979.44;;;9.90;100.00
44140;BME280;29803;51.048;4.686;2023-02-19T00:18:12;101981.28;;;9.89;100.00
44140;BME280;29803;51.048;4.686;2023-02-19T00:20:43;101984.66;;;9.91;100.00
44140;BME280;29803;51.048;4.686;2023-02-19T00:23:13;101973.94;;;9.91;100.00
44140;BME280;29803;51.048;4.686;2023-02-19T00:25:44;101973.53;;;9.96;100.00
44140;BME280;29803;51.048;4.686;2023-02-19T00:28:14;101971.72;;;9.96;100.00
44140;BME280;29803;51.048;4.686;2023-02-19T00:30:45;101968.19;;;9.96;100.00
44140;BME280;29803;51.048;4.686;2023-02-19T00:33:15;101971.72;;;9.96;100.00
44140;BME280;29803;51.048;4.686;2023-02-19T00:35:46;101972.81;;;9.94;100.00
44140;BME280;29803;51.048;4.686;2023-02-19T00:38:16;101971.97;;;9.93;100.00
44140;BME280;29803;51.048;4.686;2023-02-19T00:40:47;101962.09;;;9.94;100.00
44140;BME280;29803;51.048;4.686;2023-02-19T00:43:17;101963.91;;;9.93;100.00
44140;BME280;29803;51.048;4.686;2023-02-19T00:45:48;101956.16;;;9.90;100.00
44140;BME280;29803;51.048;4.686;2023-02-19T00:48:18;101972.38;;;9.89;100.00
44140;BME280;29803;51.048;4.686;2023-02-19T00:50:48;101966.34;;;9.96;100.00
44140;BME280;29803;51.048;4.686;2023-02-19T00:53:19;101966.09;;;9.99;100.00
44140;BME280;29803;51.048;4.686;2023-02-19T00:55:49;101973.41;;;9.97;100.00
44140;BME280;29803;51.048;4.686;2023-02-19T00:58:20;101973.41;;;9.97;100.00
44140;BME280;29803;51.048;4.686;2023-02-19T01:00:50;101971.72;;;9.96;100.00
44140;BME280;29803;51.048;4.686;2023-02-19T01:03:21;101974.38;;;9.96;100.00
44140;BME280;29803;51.048;4.686;2023-02-19T01:05:52;101976.47;;;9.93;100.00
44140;BME280;29803;51.048;4.686;2023-02-19T01:08:24;101992.31;;;9.96;100.00
44140;BME280;29803;51.048;4.686;2023-02-19T01:10:54;101985.81;;;9.98;100.00
44140;BME280;29803;51.048;4.686;2023-02-19T01:13:25;101988.50;;;9.98;100.00
44140;BME280;29803;51.048;4.686;2023-02-19T01:16:15;101981.19;;;10.00;100.00
44140;BME280;29803;51.048;4.686;2023-02-19T01:18:46;101993.84;;;9.98;100.00
44140;BME280;29803;51.048;4.686;2023-02-19T01:21:19;101992.31;;;9.96;100.00
44140;BME280;29803;51.048;4.686;2023-02-19T01:23:51;101985.97;;;9.97;100.00
44140;BME280;29803;51.048;4.686;2023-02-19T01:26:30;101998.50;;;9.96;100.00
44140;BME280;29803;51.048;4.686;2023-02-19T01:29:01;101997.81;;;9.94;100.00
44140;BME280;29803;51.048;4.686;2023-02-19T01:31:32;101999.50;;;9.95;100.00
44140;BME280;29803;51.048;4.686;2023-02-19T01:34:03;101997.22;;;9.91;100.00
44140;BME280;29803;51.048;4.686;2023-02-19T01:36:34;101998.06;;;9.91;100.00
44140;BME280;29803;51.048;4.686;2023-02-19T01:39:05;101992.97;;;9.88;100.00
44140;BME280;29803;51.048;4.686;2023-02-19T01:41:37;102007.34;;;9.87;100.00
44140;BME280;29803;51.048;4.686;2023-02-19T01:46:42;102003.22;;;9.83;100.00
44140;BME280;29803;51.048;4.686;2023-02-19T01:49:19;102000.56;;;9.83;100.00
44140;BME280;29803;51.048;4.686;2023-02-19T01:51:55;102002.66;;;9.79;100.00
44140;BME280;29803;51.048;4.686;2023-02-19T01:54:33;101995.47;;;9.80;100.00
44140;BME280;29803;51.048;4.686;2023-02-19T01:57:09;101994.63;;;9.79;100.00
44140;BME280;29803;51.048;4.686;2023-02-19T01:59:42;101998.16;;;9.80;100.00
44140;BME280;29803;51.048;4.686;2023-02-19T02:02:12;101995.47;;;9.80;100.00
44140;BME280;29803;51.048;4.686;2023-02-19T02:04:43;101999.00;;;9.80;100.00
44140;BME280;29803;51.048;4.686;2023-02-19T02:07:13;101993.66;;;9.80;100.00
44140;BME280;29803;51.048;4.686;2023-02-19T02:10:03;101994.75;;;9.78;100.00
44140;BME280;29803;51.048;4.686;2023-02-19T02:12:56;102001.09;;;9.77;100.00
44140;BME280;29803;51.048;4.686;2023-02-19T02:15:34;102000.38;;;9.75;100.00
44140;BME280;29803;51.048;4.686;2023-02-19T02:18:27;102007.28;;;9.77;100.00
44140;BME280;29803;51.048;4.686;2023-02-19T02:24:21;102007.75;;;9.82;100.00
44140;BME280;29803;51.048;4.686;2023-02-19T02:27:11;101999.84;;;9.81;100.00
44140;BME280;29803;51.048;4.686;2023-02-19T02:32:50;102009.38;;;9.74;100.00
44140;BME280;29803;51.048;4.686;2023-02-19T02:35:27;102007.69;;;9.73;100.00
44140;BME280;29803;51.048;4.686;2023-02-19T02:38:04;102016.03;;;9.70;100.00
44140;BME280;29803;51.048;4.686;2023-02-19T02:40:38;102010.06;;;9.66;100.00
44140;BME280;29803;51.048;4.686;2023-02-19T02:43:11;102011.91;;;9.66;100.00
44140;BME280;29803;51.048;4.686;2023-02-19T02:45:42;102012.75;;;9.66;100.00
44140;BME280;29803;51.048;4.686;2023-02-19T02:51:09;102013.84;;;9.64;100.00
44140;BME280;29803;51.048;4.686;2023-02-19T02:54:08;102012.59;;;9.68;100.00
44140;BME280;29803;51.048;4.686;2023-02-19T02:57:00;102017.25;;;9.66;100.00
44140;BME280;29803;51.048;4.686;2023-02-19T02:59:34;102013.00;;;9.63;100.00
44140;BME280;29803;51.048;4.686;2023-02-19T03:08:17;102030.34;;;9.59;100.00
44140;BME280;29803;51.048;4.686;2023-02-19T03:10:54;102027.00;;;9.67;100.00
44140;BME280;29803;51.048;4.686;2023-02-19T03:13:31;102032.03;;;9.60;100.00
44140;BME280;29803;51.048;4.686;2023-02-19T03:16:25;102033.13;;;9.57;100.00
44140;BME280;29803;51.048;4.686;2023-02-19T03:19:18;102038.75;;;9.54;100.00
44140;BME280;29803;51.048;4.686;2023-02-19T03:24:27;102038.38;;;9.59;100.00
44140;BME280;29803;51.048;4.686;2023-02-19T03:27:17;102041.16;;;9.57;100.00
44140;BME280;29803;51.048;4.686;2023-02-19T03:29:50;102041.44;;;9.54;100.00
44140;BME280;29803;51.048;4.686;2023-02-19T03:32:28;102041.84;;;9.50;100.00
44140;BME280;29803;51.048;4.686;2023-02-19T03:35:08;102039.00;;;9.51;100.00
44140;BME280;29803;51.048;4.686;2023-02-19T03:37:44;102049.13;;;9.48;100.00
44140;BME280;29803;51.048;4.686;2023-02-19T03:40:17;102041.84;;;9.50;100.00
44140;BME280;29803;51.048;4.686;2023-02-19T03:42:53;102043.66;;;9.49;100.00
44140;BME280;29803;51.048;4.686;2023-02-19T03:48:32;102053.19;;;9.42;100.00
44140;BME280;29803;51.048;4.686;2023-02-19T03:56:51;102058.91;;;9.49;100.00
44140;BME280;29803;51.048;4.686;2023-02-19T03:59:31;102066.94;;;9.49;100.00
44140;BME280;29803;51.048;4.686;2023-02-19T04:02:09;102072.38;;;9.47;100.00
44140;BME280;29803;51.048;4.686;2023-02-19T04:07:49;102083.94;;;9.48;100.00
44140;BME280;29803;51.048;4.686;2023-02-19T04:10:22;102096.41;;;9.49;100.00
44140;BME280;29803;51.048;4.686;2023-02-19T04:16:04;102088.97;;;9.41;100.00
44140;BME280;29803;51.048;4.686;2023-02-19T04:18:39;102092.38;;;9.43;100.00
44140;BME280;29803;51.048;4.686;2023-02-19T04:21:11;102093.97;;;9.46;100.00
44140;BME280;29803;51.048;4.686;2023-02-19T04:23:44;102099.31;;;9.46;100.00
44140;BME280;29803;51.048;4.686;2023-02-19T04:26:16;102089.69;;;9.43;100.00
44140;BME280;29803;51.048;4.686;2023-02-19T04:28:47;102097.63;;;9.45;100.00
44140;BME280;29803;51.048;4.686;2023-02-19T04:31:17;102097.63;;;9.45;100.00
44140;BME280;29803;51.048;4.686;2023-02-19T04:33:48;102095.06;;;9.43;100.00
44140;BME280;29803;51.048;4.686;2023-02-19T04:36:18;102100.53;;;9.42;100.00
44140;BME280;29803;51.048;4.686;2023-02-19T04:38:49;102101.53;;;9.41;100.00
44140;BME280;29803;51.048;4.686;2023-02-19T04:41:19;102109.44;;;9.42;100.00
44140;BME280;29803;51.048;4.686;2023-02-19T04:43:50;102107.72;;;9.41;100.00
44140;BME280;29803;51.048;4.686;2023-02-19T04:46:22;102117.00;;;9.37;100.00
44140;BME280;29803;51.048;4.686;2023-02-19T04:48:52;102115.31;;;9.36;100.00
44140;BME280;29803;51.048;4.686;2023-02-19T04:51:23;102117.75;;;9.39;100.00
44140;BME280;29803;51.048;4.686;2023-02-19T04:53:53;102117.47;;;9.42;100.00
44140;BME280;29803;51.048;4.686;2023-02-19T04:56:25;102123.56;;;9.44;100.00
44140;BME280;29803;51.048;4.686;2023-02-19T04:58:56;102125.34;;;9.44;100.00
44140;BME280;29803;51.048;4.686;2023-02-19T05:01:26;102129.63;;;9.46;100.00
44140;BME280;29803;51.048;4.686;2023-02-19T05:03:57;102135.84;;;9.47;100.00
44140;BME280;29803;51.048;4.686;2023-02-19T05:06:27;102133.16;;;9.47;100.00
44140;BME280;29803;51.048;4.686;2023-02-19T05:08:58;102139.50;;;9.46;100.00
44140;BME280;29803;51.048;4.686;2023-02-19T05:11:28;102132.53;;;9.54;100.00
44140;BME280;29803;51.048;4.686;2023-02-19T05:13:59;102132.78;;;9.51;100.00
44140;BME280;29803;51.048;4.686;2023-02-19T05:16:29;102140.19;;;9.59;100.00
44140;BME280;29803;51.048;4.686;2023-02-19T05:19:00;102137.75;;;9.56;100.00
44140;BME280;29803;51.048;4.686;2023-02-19T05:21:30;102137.28;;;9.51;100.00
44140;BME280;29803;51.048;4.686;2023-02-19T05:24:01;102147.00;;;9.52;100.00
44140;BME280;29803;51.048;4.686;2023-02-19T05:26:32;102157.03;;;9.50;100.00
44140;BME280;29803;51.048;4.686;2023-02-19T05:29:02;102157.88;;;9.50;100.00
44140;BME280;29803;51.048;4.686;2023-02-19T05:31:32;102163.84;;;9.54;100.00
44140;BME280;29803;51.048;4.686;2023-02-19T05:34:03;102163.94;;;9.52;100.00
44140;BME280;29803;51.048;4.686;2023-02-19T05:36:33;102158.72;;;9.51;100.00
44140;BME280;29803;51.048;4.686;2023-02-19T05:39:06;102169.44;;;9.51;100.00
44140;BME280;29803;51.048;4.686;2023-02-19T05:41:38;102185.88;;;9.46;100.00
44140;BME280;29803;51.048;4.686;2023-02-19T05:44:09;102185.03;;;9.46;100.00
44140;BME280;29803;51.048;4.686;2023-02-19T05:46:40;102173.47;;;9.45;100.00
44140;BME280;29803;51.048;4.686;2023-02-19T05:49:11;102178.22;;;9.42;100.00
44140;BME280;29803;51.048;4.686;2023-02-19T05:51:41;102181.22;;;9.48;100.00
44140;BME280;29803;51.048;4.686;2023-02-19T05:54:12;102186.34;;;9.51;100.00
44140;BME280;29803;51.048;4.686;2023-02-19T05:56:42;102194.16;;;9.43;100.00
44140;BME280;29803;51.048;4.686;2023-02-19T06:02:00;102195.41;;;9.39;100.00
44140;BME280;29803;51.048;4.686;2023-02-19T06:04:31;102204.53;;;9.37;100.00
44140;BME280;29803;51.048;4.686;2023-02-19T06:07:01;102204.78;;;9.33;100.00
44140;BME280;29803;51.048;4.686;2023-02-19T06:09:32;102206.13;;;9.28;100.00
44140;BME280;29803;51.048;4.686;2023-02-19T06:12:02;102201.16;;;9.34;100.00
44140;BME280;29803;51.048;4.686;2023-02-19T06:14:33;102206.50;;;9.34;100.00
44140;BME280;29803;51.048;4.686;2023-02-19T06:17:03;102203.06;;;9.32;100.00
44140;BME280;29803;51.048;4.686;2023-02-19T06:19:34;102202.69;;;9.37;100.00
44140;BME280;29803;51.048;4.686;2023-02-19T06:22:04;102204.53;;;9.37;100.00
44140;BME280;29803;51.048;4.686;2023-02-19T06:24:35;102210.13;;;9.33;100.00
44140;BME280;29803;51.048;4.686;2023-02-19T06:27:07;102213.22;;;9.29;100.00
44140;BME280;29803;51.048;4.686;2023-02-19T06:29:38;102210.91;;;9.24;100.00
44140;BME280;29803;51.048;4.686;2023-02-19T06:32:09;102203.94;;;9.22;100.00
44140;BME280;29803;51.048;4.686;2023-02-19T06:34:39;102213.34;;;9.16;100.00
44140;BME280;29803;51.048;4.686;2023-02-19T06:37:10;102215.88;;;9.18;100.00
44140;BME280;29803;51.048;4.686;2023-02-19T06:39:40;102209.09;;;9.14;100.00
44140;BME280;29803;51.048;4.686;2023-02-19T06:42:11;102215.41;;;9.13;100.00
44140;BME280;29803;51.048;4.686;2023-02-19T06:44:41;102227.47;;;9.07;100.00
44140;BME280;29803;51.048;4.686;2023-02-19T06:47:12;102218.56;;;9.06;100.00
44140;BME280;29803;51.048;4.686;2023-02-19T06:49:42;102227.81;;;9.02;100.00
44140;BME280;29803;51.048;4.686;2023-02-19T06:52:13;102226.34;;;8.98;100.00
44140;BME280;29803;51.048;4.686;2023-02-19T06:54:54;102232.19;;;9.03;100.00
44140;BME280;29803;51.048;4.686;2023-02-19T06:57:25;102235.75;;;9.04;100.00
44140;BME280;29803;51.048;4.686;2023-02-19T06:59:55;102248.00;;;9.18;100.00
44140;BME280;29803;51.048;4.686;2023-02-19T07:02:26;102236.22;;;9.20;100.00
44140;BME280;29803;51.048;4.686;2023-02-19T07:05:14;102245.72;;;9.24;100.00
44140;BME280;29803;51.048;4.686;2023-02-19T07:07:46;102250.56;;;9.30;100.00
44140;BME280;29803;51.048;4.686;2023-02-19T07:10:19;102248.97;;;9.28;100.00
44140;BME280;29803;51.048;4.686;2023-02-19T07:12:50;102258.72;;;9.40;100.00
44140;BME280;29803;51.048;4.686;2023-02-19T07:15:20;102266.75;;;9.40;100.00
44140;BME280;29803;51.048;4.686;2023-02-19T07:17:51;102263.69;;;9.45;100.00
44140;BME280;29803;51.048;4.686;2023-02-19T07:20:21;102265.53;;;9.44;100.00
44140;BME280;29803;51.048;4.686;2023-02-19T07:22:52;102269.06;;;9.45;100.00
44140;BME280;29803;51.048;4.686;2023-02-19T07:25:22;102272.69;;;9.44;100.00
44140;BME280;29803;51.048;4.686;2023-02-19T07:27:53;102268.94;;;9.46;100.00
44140;BME280;29803;51.048;4.686;2023-02-19T07:30:23;102274.63;;;9.53;100.00
44140;BME280;29803;51.048;4.686;2023-02-19T07:32:53;102281.91;;;9.62;100.00
44140;BME280;29803;51.048;4.686;2023-02-19T07:35:24;102280.22;;;9.61;100.00
44140;BME280;29803;51.048;4.686;2023-02-19T07:37:54;102284.00;;;9.58;100.00
44140;BME280;29803;51.048;4.686;2023-02-19T07:40:25;102292.78;;;9.60;100.00
44140;BME280;29803;51.048;4.686;2023-02-19T07:42:58;102288.72;;;9.66;100.00
44140;BME280;29803;51.048;4.686;2023-02-19T07:45:28;102303.84;;;9.67;100.00
44140;BME280;29803;51.048;4.686;2023-02-19T07:47:58;102301.28;;;9.66;100.00
44140;BME280;29803;51.048;4.686;2023-02-19T07:50:29;102300.66;;;9.73;100.00
44140;BME280;29803;51.048;4.686;2023-02-19T07:52:59;102311.13;;;9.76;100.00
44140;BME280;29803;51.048;4.686;2023-02-19T07:55:31;102303.69;;;9.80;100.00
44140;BME280;29803;51.048;4.686;2023-02-19T07:58:01;102317.47;;;9.75;100.00
44140;BME280;29803;51.048;4.686;2023-02-19T08:00:32;102322.94;;;9.74;100.00
44140;BME280;29803;51.048;4.686;2023-02-19T08:03:02;102326.22;;;9.77;100.00
44140;BME280;29803;51.048;4.686;2023-02-19T08:05:37;102328.06;;;9.77;100.00
44140;BME280;29803;51.048;4.686;2023-02-19T08:08:09;102324.75;;;9.73;100.00
44140;BME280;29803;51.048;4.686;2023-02-19T08:10:40;102336.94;;;9.77;100.00
44140;BME280;29803;51.048;4.686;2023-02-19T08:13:30;102348.88;;;9.73;100.00
44140;BME280;29803;51.048;4.686;2023-02-19T08:18:31;102362.78;;;9.67;100.00
44140;BME280;29803;51.048;4.686;2023-02-19T08:21:02;102370.34;;;9.62;100.00
44140;BME280;29803;51.048;4.686;2023-02-19T08:23:33;102378.25;;;9.64;100.00
44140;BME280;29803;51.048;4.686;2023-02-19T08:26:04;102378.16;;;9.65;100.00
44140;BME280;29803;51.048;4.686;2023-02-19T08:28:34;102377.41;;;9.63;100.00
44140;BME280;29803;51.048;4.686;2023-02-19T08:31:06;102382.41;;;9.68;100.00
44140;BME280;29803;51.048;4.686;2023-02-19T08:33:37;102384.50;;;9.64;100.00
44140;BME280;29803;51.048;4.686;2023-02-19T08:36:08;102386.41;;;9.73;100.00
44140;BME280;29803;51.048;4.686;2023-02-19T08:38:40;102392.88;;;9.71;100.00
44140;BME280;29803;51.048;4.686;2023-02-19T08:41:12;102395.69;;;9.69;100.00
44140;BME280;29803;51.048;4.686;2023-02-19T08:43:43;102391.66;;;9.75;100.00
44140;BME280;29803;51.048;4.686;2023-02-19T08:46:13;102404.22;;;9.74;100.00
44140;BME280;29803;51.048;4.686;2023-02-19T08:48:44;102402.38;;;9.86;100.00
44140;BME280;29803;51.048;4.686;2023-02-19T08:51:15;102414.06;;;9.85;100.00
44140;BME280;29803;51.048;4.686;2023-02-19T08:53:45;102416.00;;;9.83;100.00
44140;BME280;29803;51.048;4.686;2023-02-19T08:56:16;102413.09;;;9.86;100.00
44140;BME280;29803;51.048;4.686;2023-02-19T08:58:46;102421.38;;;9.83;100.00
44140;BME280;29803;51.048;4.686;2023-02-19T09:01:17;102417.25;;;9.79;100.00
44140;BME280;29803;51.048;4.686;2023-02-19T09:03:47;102420.50;;;9.82;100.00
44140;BME280;29803;51.048;4.686;2023-02-19T09:06:19;102415.16;;;9.82;100.00
44140;BME280;29803;51.048;4.686;2023-02-19T09:08:50;102422.13;;;9.85;100.00
44140;BME280;29803;51.048;4.686;2023-02-19T09:11:20;102413.81;;;9.88;100.00
44140;BME280;29803;51.048;4.686;2023-02-19T09:13:50;102417.22;;;9.90;100.00
44140;BME280;29803;51.048;4.686;2023-02-19T09:16:21;102418.19;;;10.00;100.00
44140;BME280;29803;51.048;4.686;2023-02-19T09:18:51;102422.91;;;10.08;100.00
44140;BME280;29803;51.048;4.686;2023-02-19T09:21:22;102424.63;;;10.20;100.00
44140;BME280;29803;51.048;4.686;2023-02-19T09:23:52;102425.59;;;10.30;100.00
44140;BME280;29803;51.048;4.686;2023-02-19T09:26:23;102439.47;;;10.35;100.00
44140;BME280;29803;51.048;4.686;2023-02-19T09:28:54;102422.78;;;10.32;100.00
44140;BME280;29803;51.048;4.686;2023-02-19T09:31:24;102426.44;;;10.31;100.00
44140;BME280;29803;51.048;4.686;2023-02-19T09:33:55;102423.25;;;10.37;100.00
44140;BME280;29803;51.048;4.686;2023-02-19T09:36:25;102433.66;;;10.30;100.00
44140;BME280;29803;51.048;4.686;2023-02-19T09:38:56;102431.91;;;10.18;100.00
44140;BME280;29803;51.048;4.686;2023-02-19T09:41:30;102430.13;;;10.07;100.00
44140;BME280;29803;51.048;4.686;2023-02-19T09:44:02;102436.22;;;9.98;100.00
44140;BME280;29803;51.048;4.686;2023-02-19T09:46:52;102432.84;;;9.85;100.00
44140;BME280;29803;51.048;4.686;2023-02-19T09:49:27;102429.66;;;9.80;100.00
44140;BME280;29803;51.048;4.686;2023-02-19T09:52:05;102438.94;;;9.76;100.00
44140;BME280;29803;51.048;4.686;2023-02-19T09:54:37;102438.28;;;9.83;100.00
44140;BME280;29803;51.048;4.686;2023-02-19T09:57:14;102437.47;;;9.94;100.00
44140;BME280;29803;51.048;4.686;2023-02-19T09:59:48;102447.31;;;10.05;100.00
44140;BME280;29803;51.048;4.686;2023-02-19T10:02:21;102448.50;;;10.12;100.00
44140;BME280;29803;51.048;4.686;2023-02-19T10:04:52;102455.47;;;10.15;100.00
44140;BME280;29803;51.048;4.686;2023-02-19T10:07:27;102462.53;;;10.27;100.00
44140;BME280;29803;51.048;4.686;2023-02-19T10:10:19;102456.16;;;10.39;100.00
44140;BME280;29803;51.048;4.686;2023-02-19T10:12:54;102458.59;;;10.42;100.00
44140;BME280;29803;51.048;4.686;2023-02-19T10:15:32;102462.97;;;10.43;100.00
44140;BME280;29803;51.048;4.686;2023-02-19T10:18:05;102474.47;;;10.45;100.00
44140;BME280;29803;51.048;4.686;2023-02-19T10:20:36;102474.56;;;10.44;100.00
44140;BME280;29803;51.048;4.686;2023-02-19T10:23:09;102480.41;;;10.49;100.00
44140;BME280;29803;51.048;4.686;2023-02-19T10:25:46;102478.00;;;10.46;100.00
44140;BME280;29803;51.048;4.686;2023-02-19T10:28:18;102474.47;;;10.34;100.00
44140;BME280;29803;51.048;4.686;2023-02-19T10:30:54;102492.75;;;10.29;100.00
44140;BME280;29803;51.048;4.686;2023-02-19T10:33:26;102493.03;;;10.26;100.00
44140;BME280;29803;51.048;4.686;2023-02-19T10:35:58;102490.56;;;10.23;100.00
44140;BME280;29803;51.048;4.686;2023-02-19T10:38:30;102491.91;;;10.28;100.00
44140;BME280;29803;51.048;4.686;2023-02-19T10:41:20;102501.91;;;10.37;100.00
44140;BME280;29803;51.048;4.686;2023-02-19T10:44:12;102503.97;;;10.45;100.00
44140;BME280;29803;51.048;4.686;2023-02-19T10:46:46;102509.31;;;10.56;100.00
44140;BME280;29803;51.048;4.686;2023-02-19T10:49:20;102511.38;;;10.53;100.00
44140;BME280;29803;51.048;4.686;2023-02-19T10:51:55;102516.16;;;10.49;100.00
44140;BME280;29803;51.048;4.686;2023-02-19T10:54:29;102528.34;;;10.53;100.00
44140;BME280;29803;51.048;4.686;2023-02-19T10:57:29;102529.47;;;10.51;100.00
44140;BME280;29803;51.048;4.686;2023-02-19T11:00:20;102544.34;;;10.55;100.00
44140;BME280;29803;51.048;4.686;2023-02-19T11:03:16;102537.47;;;10.62;100.00
44140;BME280;29803;51.048;4.686;2023-02-19T11:06:03;102538.69;;;10.58;100.00
44140;BME280;29803;51.048;4.686;2023-02-19T11:11:37;102540.03;;;10.63;100.00
44140;BME280;29803;51.048;4.686;2023-02-19T11:14:27;102539.19;;;10.63;100.00
44140;BME280;29803;51.048;4.686;2023-02-19T11:17:38;102537.59;;;10.60;100.00
44140;BME280;29803;51.048;4.686;2023-02-19T11:20:13;102539.53;;;10.58;100.00
44140;BME280;29803;51.048;4.686;2023-02-19T11:22:45;102529.41;;;10.62;100.00
44140;BME280;29803;51.048;4.686;2023-02-19T11:25:19;102536.88;;;10.58;100.00
44140;BME280;29803;51.048;4.686;2023-02-19T11:31:13;102542.84;;;10.62;100.00
44140;BME280;29803;51.048;4.686;2023-02-19T11:33:51;102539.53;;;10.58;100.00
44140;BME280;29803;51.048;4.686;2023-02-19T11:36:24;102546.75;;;10.58;100.00
44140;BME280;29803;51.048;4.686;2023-02-19T11:38:58;102548.34;;;10.60;100.00
44140;BME280;29803;51.048;4.686;2023-02-19T11:53:33;102544.53;;;10.63;100.00
44140;BME280;29803;51.048;4.686;2023-02-19T11:56:23;102543.09;;;10.59;100.00
44140;BME280;29803;51.048;4.686;2023-02-19T11:59:11;102537.72;;;10.59;100.00
44140;BME280;29803;51.048;4.686;2023-02-19T12:02:11;102534.66;;;10.63;100.00
44140;BME280;29803;51.048;4.686;2023-02-19T12:07:59;102525.28;;;10.58;100.00
44140;BME280;29803;51.048;4.686;2023-02-19T12:10:48;102499.28;;;10.58;100.00
44140;BME280;29803;51.048;4.686;2023-02-19T12:16:14;102510.69;;;10.40;100.00
44140;BME280;29803;51.048;4.686;2023-02-19T12:27:30;102497.66;;;10.01;100.00
44140;BME280;29803;51.048;4.686;2023-02-19T12:39:16;102511.19;;;10.11;100.00
44140;BME280;29803;51.048;4.686;2023-02-19T12:42:02;102523.59;;;10.12;100.00
44140;BME280;29803;51.048;4.686;2023-02-19T12:47:28;102531.88;;;10.09;100.00
44140;BME280;29803;51.048;4.686;2023-02-19T12:53:04;102537.50;;;10.06;100.00
44140;BME280;29803;51.048;4.686;2023-02-19T12:55:41;102534.81;;;10.06;100.00
44140;BME280;29803;51.048;4.686;2023-02-19T12:58:45;102545.41;;;10.07;100.00
44140;BME280;29803;51.048;4.686;2023-02-19T13:01:22;102543.13;;;10.14;100.00
44140;BME280;29803;51.048;4.686;2023-02-19T13:04:16;102551.75;;;10.18;100.00
44140;BME280;29803;51.048;4.686;2023-02-19T13:06:56;102561.91;;;10.25;100.00
44140;BME280;29803;51.048;4.686;2023-02-19T13:09:48;102567.50;;;10.33;100.00
44140;BME280;29803;51.048;4.686;2023-02-19T13:17:57;102554.69;;;10.48;100.00
44140;BME280;29803;51.048;4.686;2023-02-19T13:20:34;102553.72;;;10.38;100.00
44140;BME280;29803;51.048;4.686;2023-02-19T13:23:24;102559.22;;;10.36;100.00
44140;BME280;29803;51.048;4.686;2023-02-19T13:29:30;102565.88;;;9.97;100.00
44140;BME280;29803;51.048;4.686;2023-02-19T13:35:23;102595.44;;;9.73;100.00
44140;BME280;29803;51.048;4.686;2023-02-19T13:37:59;102592.53;;;9.76;100.00
44140;BME280;29803;51.048;4.686;2023-02-19T13:40:33;102590.72;;;9.77;100.00
44140;BME280;29803;51.048;4.686;2023-02-19T13:43:07;102589.28;;;9.84;100.00
44140;BME280;29803;51.048;4.686;2023-02-19T13:45:55;102587.09;;;9.89;100.00
44140;BME280;29803;51.048;4.686;2023-02-19T13:48:30;102606.59;;;9.91;100.00
44140;BME280;29803;51.048;4.686;2023-02-19T13:59:55;102596.19;;;9.64;100.00
44140;BME280;29803;51.048;4.686;2023-02-19T14:02:29;102600.16;;;9.58;100.00
44140;BME280;29803;51.048;4.686;2023-02-19T14:05:04;102604.16;;;9.53;100.00
44140;BME280;29803;51.048;4.686;2023-02-19T14:28:02;102630.88;;;9.30;100.00
44140;BME280;29803;51.048;4.686;2023-02-19T14:33:29;102657.38;;;9.22;100.00
44140;BME280;29803;51.048;4.686;2023-02-19T14:38:43;102661.34;;;9.17;100.00
44140;BME280;29803;51.048;4.686;2023-02-19T14:41:16;102670.34;;;9.16;100.00
44140;BME280;29803;51.048;4.686;2023-02-19T14:43:48;102654.06;;;9.19;100.00
44140;BME280;29803;51.048;4.686;2023-02-19T14:52:02;102658.28;;;9.34;100.00
44140;BME280;29803;51.048;4.686;2023-02-19T14:54:53;102671.09;;;9.42;100.00
44140;BME280;29803;51.048;4.686;2023-02-19T14:57:41;102659.66;;;9.40;100.00
44140;BME280;29803;51.048;4.686;2023-02-19T15:00:27;102659.31;;;9.44;100.00
44140;BME280;29803;51.048;4.686;2023-02-19T15:02:57;102649.53;;;9.43;100.00
44140;BME280;29803;51.048;4.686;2023-02-19T15:05:32;102643.47;;;9.41;100.00
44140;BME280;29803;51.048;4.686;2023-02-19T15:08:07;102648.34;;;9.47;100.00
44140;BME280;29803;51.048;4.686;2023-02-19T15:10:40;102648.84;;;9.52;100.00
44140;BME280;29803;51.048;4.686;2023-02-19T15:13:18;102651.19;;;9.57;100.00
44140;BME280;29803;51.048;4.686;2023-02-19T15:15:52;102649.66;;;9.66;100.00
44140;BME280;29803;51.048;4.686;2023-02-19T15:18:25;102648.19;;;9.73;100.00
44140;BME280;29803;51.048;4.686;2023-02-19T15:21:00;102646.16;;;9.76;100.00
44140;BME280;29803;51.048;4.686;2023-02-19T15:23:33;102638.34;;;9.73;100.00
44140;BME280;29803;51.048;4.686;2023-02-19T15:26:16;102631.63;;;9.68;100.00
44140;BME280;29803;51.048;4.686;2023-02-19T15:31:57;102635.50;;;9.64;100.00
44140;BME280;29803;51.048;4.686;2023-02-19T15:34:30;102634.75;;;9.50;100.00
44140;BME280;29803;51.048;4.686;2023-02-19T15:37:03;102634.97;;;9.47;100.00
44140;BME280;29803;51.048;4.686;2023-02-19T15:39:38;102628.38;;;9.40;100.00
44140;BME280;29803;51.048;4.686;2023-02-19T15:42:14;102609.84;;;9.37;100.00
44140;BME280;29803;51.048;4.686;2023-02-19T15:45:02;102614.69;;;9.32;100.00
44140;BME280;29803;51.048;4.686;2023-02-19T15:50:15;102624.75;;;9.28;100.00
44140;BME280;29803;51.048;4.686;2023-02-19T15:56:14;102629.56;;;9.12;100.00